Time;durP1;ratioP1;P1;durP2;ratioP2;P2;SDS_P1;SDS_P2;PMS_P1;PMS_P2;Temp;Humidity;BMP_temperature;BMP_pressure;BME280_temperature;BME280_humidity;BME280_pressure;Samples;Min_cycle;Max_cycle;Signal;HPM_P1;HPM_P2
2021/11/19 00:00:59;;;;;;;26.52;13.77;;;11.20;99.90;;;;;;5050616;28;20020;-79
2021/11/19 00:03:27;;;;;;;32.03;14.30;;;11.20;99.90;;;;;;5068217;28;20062;-79
2021/11/19 00:05:53;;;;;;;34.30;15.95;;;11.20;99.90;;;;;;5070251;28;20052;-77
2021/11/19 00:08:25;;;;;;;30.77;15.30;;;11.20;99.90;;;;;;5067531;28;20359;-77
2021/11/19 00:10:53;;;;;;;30.20;15.80;;;11.20;99.90;;;;;;5065005;28;20499;-79
2021/11/19 00:13:20;;;;;;;31.85;15.50;;;11.20;99.90;;;;;;5037376;28;20766;-78
2021/11/19 00:15:49;;;;;;;27.75;13.65;;;11.20;99.90;;;;;;5039303;28;20043;-76
2021/11/19 00:18:16;;;;;;;24.05;13.93;;;11.20;99.90;;;;;;5037677;28;20478;-77
2021/11/19 00:20:43;;;;;;;31.48;14.82;;;11.20;99.90;;;;;;5053876;28;20032;-76
2021/11/19 00:23:14;;;;;;;28.73;14.68;;;11.20;99.90;;;;;;5054373;28;20051;-77
2021/11/19 00:25:47;;;;;;;28.17;14.80;;;11.20;99.90;;;;;;5043715;28;20028;-78
2021/11/19 00:28:14;;;;;;;30.13;16.20;;;11.20;99.90;;;;;;5036563;28;20154;-75
2021/11/19 00:30:43;;;;;;;28.88;15.57;;;11.20;99.90;;;;;;5051849;28;20036;-77
2021/11/19 00:33:12;;;;;;;28.30;15.30;;;11.20;99.90;;;;;;5063282;28;20024;-77
2021/11/19 00:35:45;;;;;;;33.08;17.15;;;11.20;99.90;;;;;;5022003;28;20033;-77
2021/11/19 00:38:17;;;;;;;26.98;14.77;;;11.20;99.90;;;;;;5019881;28;20037;-78
2021/11/19 00:40:59;;;;;;;29.27;15.38;;;11.20;99.90;;;;;;5034778;28;20040;-78
2021/11/19 00:43:27;;;;;;;28.13;14.52;;;11.20;99.90;;;;;;5034303;28;20483;-78
2021/11/19 00:45:57;;;;;;;25.08;13.48;;;11.20;99.90;;;;;;5017761;28;21097;-79
2021/11/19 00:48:30;;;;;;;26.00;13.23;;;11.20;99.90;;;;;;5032657;28;20056;-78
2021/11/19 00:51:16;;;;;;;19.23;12.13;;;11.20;99.90;;;;;;5018543;28;20036;-78
2021/11/19 00:54:06;;;;;;;27.98;16.00;;;11.20;99.90;;;;;;5013841;28;20037;-79
2021/11/19 00:56:40;;;;;;;31.00;15.55;;;11.20;99.90;;;;;;5011483;28;20048;-78
2021/11/19 00:59:24;;;;;;;28.55;15.57;;;11.20;99.90;;;;;;5012074;28;20021;-79
2021/11/19 01:02:31;;;;;;;31.55;17.40;;;11.20;99.90;;;;;;5028143;28;20045;-77
2021/11/19 01:05:20;;;;;;;35.30;17.10;;;11.20;99.90;;;;;;4990600;28;20039;-78
2021/11/19 01:07:57;;;;;;;27.95;15.45;;;11.20;99.90;;;;;;4958390;28;20054;-79
2021/11/19 01:10:29;;;;;;;30.25;17.05;;;11.20;99.90;;;;;;4954789;28;20054;-78
2021/11/19 01:13:07;;;;;;;26.20;15.75;;;11.20;99.90;;;;;;4970453;28;20026;-78
2021/11/19 01:15:50;;;;;;;34.22;17.27;;;11.20;99.90;;;;;;4972022;28;20038;-79
2021/11/19 01:18:30;;;;;;;29.88;16.27;;;11.20;99.90;;;;;;4970065;28;20054;-78
2021/11/19 01:21:17;;;;;;;30.73;16.42;;;11.20;99.90;;;;;;4988376;28;20042;-79
2021/11/19 01:24:00;;;;;;;34.88;19.48;;;11.20;99.90;;;;;;4967111;28;20034;-77
2021/11/19 01:26:47;;;;;;;27.52;17.38;;;11.30;99.90;;;;;;4954120;28;20545;-76
2021/11/19 01:29:17;;;;;;;32.55;17.58;;;11.30;99.90;;;;;;4955960;28;20046;-76
2021/11/19 01:31:46;;;;;;;32.80;17.67;;;11.30;99.90;;;;;;4950439;28;20039;-75
2021/11/19 01:34:22;;;;;;;30.25;18.27;;;11.30;99.90;;;;;;4940367;28;20640;-79
2021/11/19 01:37:06;;;;;;;29.83;19.10;;;11.30;99.90;;;;;;4973203;28;20060;-78
2021/11/19 01:40:05;;;;;;;34.67;18.60;;;11.30;99.90;;;;;;4985297;28;20054;-77
2021/11/19 01:42:45;;;;;;;34.15;20.02;;;11.30;99.90;;;;;;4970392;28;20382;-78
2021/11/19 01:45:26;;;;;;;34.90;19.70;;;11.30;99.90;;;;;;5003198;28;20473;-76
2021/11/19 01:48:15;;;;;;;29.58;17.20;;;11.30;99.90;;;;;;5007295;28;20450;-78
2021/11/19 01:50:45;;;;;;;25.88;17.30;;;11.30;99.90;;;;;;5019778;28;20030;-78
2021/11/19 01:53:31;;;;;;;30.80;18.27;;;11.30;99.90;;;;;;5010033;28;20029;-76
2021/11/19 01:56:15;;;;;;;33.67;18.65;;;11.30;99.90;;;;;;5010947;28;20021;-77
2021/11/19 01:58:50;;;;;;;30.92;19.38;;;11.30;99.90;;;;;;5051036;28;20055;-80
2021/11/19 02:01:22;;;;;;;35.88;18.75;;;11.30;99.90;;;;;;5049418;28;20031;-80
2021/11/19 02:03:55;;;;;;;39.83;19.70;;;11.30;99.90;;;;;;5053054;28;20044;-80
2021/11/19 02:06:36;;;;;;;28.77;17.65;;;11.30;99.90;;;;;;5033883;28;20503;-79
2021/11/19 02:09:36;;;;;;;31.13;19.77;;;11.30;99.90;;;;;;5037110;28;20047;-79
2021/11/19 02:12:22;;;;;;;36.75;20.92;;;11.30;99.90;;;;;;5051507;28;20040;-79
2021/11/19 02:15:12;;;;;;;32.95;19.35;;;11.30;99.90;;;;;;5021297;28;20043;-80
2021/11/19 02:18:04;;;;;;;29.85;18.65;;;11.30;99.90;;;;;;5052046;28;20044;-78
2021/11/19 02:20:48;;;;;;;31.98;19.33;;;11.30;99.90;;;;;;5065079;28;20028;-78
2021/11/19 02:23:25;;;;;;;30.08;18.13;;;11.30;99.90;;;;;;5035706;28;20040;-79
2021/11/19 02:26:16;;;;;;;35.80;20.10;;;11.30;99.90;;;;;;5057344;28;20041;-79
2021/11/19 02:29:15;;;;;;;31.13;19.20;;;11.30;99.90;;;;;;5033947;28;20041;-80
2021/11/19 02:32:24;;;;;;;32.75;18.90;;;11.40;99.90;;;;;;5036799;28;20361;-79
2021/11/19 02:35:09;;;;;;;37.40;21.33;;;11.40;99.90;;;;;;5023481;28;20036;-78
2021/11/19 02:37:42;;;;;;;33.28;21.00;;;11.40;99.90;;;;;;5034330;28;20036;-78
2021/11/19 02:40:44;;;;;;;36.33;21.73;;;11.40;99.90;;;;;;5052316;28;20025;-79
2021/11/19 02:43:28;;;;;;;33.13;20.75;;;11.40;99.90;;;;;;5053896;28;20055;-80
2021/11/19 02:45:55;;;;;;;35.67;21.52;;;11.30;99.90;;;;;;5053946;28;20094;-77
2021/11/19 02:48:26;;;;;;;39.03;23.25;;;11.40;99.90;;;;;;5038885;28;20044;-76
2021/11/19 02:50:54;;;;;;;37.53;21.40;;;11.40;99.90;;;;;;5052840;28;20491;-77
2021/11/19 02:53:22;;;;;;;38.22;22.80;;;11.40;99.90;;;;;;5070470;28;20040;-78
2021/11/19 02:55:53;;;;;;;32.13;20.65;;;11.40;99.90;;;;;;5037667;28;20037;-78
2021/11/19 02:58:30;;;;;;;33.53;21.50;;;11.40;99.90;;;;;;5051898;28;20055;-78
2021/11/19 03:01:31;;;;;;;39.60;24.23;;;11.40;99.90;;;;;;5035609;28;20388;-78
2021/11/19 03:04:17;;;;;;;43.28;25.08;;;11.40;99.90;;;;;;5070037;28;20041;-79
2021/11/19 03:06:55;;;;;;;43.85;24.65;;;11.40;99.90;;;;;;4996847;28;20180;-79
2021/11/19 03:10:15;;;;;;;37.85;24.73;;;11.40;99.90;;;;;;5016979;28;20108;-79
2021/11/19 03:12:45;;;;;;;35.15;22.08;;;11.40;99.90;;;;;;4993846;28;20632;-79
2021/11/19 03:15:32;;;;;;;41.47;24.90;;;11.40;99.90;;;;;;4983728;28;20068;-79
2021/11/19 03:18:28;;;;;;;43.08;25.75;;;11.40;99.90;;;;;;4975560;28;20054;-79
2021/11/19 03:21:18;;;;;;;41.78;24.80;;;11.40;99.90;;;;;;5002583;28;20404;-79
2021/11/19 03:27:36;;;;;;;39.65;24.25;;;11.40;99.90;;;;;;4938218;28;20045;-79
2021/11/19 03:30:54;;;;;;;39.83;23.83;;;11.40;99.90;;;;;;4956526;28;20058;-79
2021/11/19 03:33:57;;;;;;;38.35;25.13;;;11.40;99.90;;;;;;4954243;28;20042;-79
2021/11/19 03:36:29;;;;;;;38.10;23.55;;;11.40;99.90;;;;;;4943495;28;20054;-79
2021/11/19 03:38:59;;;;;;;36.00;23.38;;;11.40;99.90;;;;;;4902969;28;20046;-80
2021/11/19 03:41:44;;;;;;;42.33;25.23;;;11.40;99.90;;;;;;4935483;28;20168;-79
2021/11/19 03:44:39;;;;;;;35.35;24.90;;;11.40;99.90;;;;;;4938039;28;20631;-79
2021/11/19 03:47:56;;;;;;;37.60;24.77;;;11.40;99.90;;;;;;4939022;28;20047;-79
2021/11/19 03:50:32;;;;;;;41.15;25.27;;;11.40;99.90;;;;;;4936620;28;20441;-79
2021/11/19 03:56:25;;;;;;;48.95;29.30;;;11.40;99.90;;;;;;4925831;28;20046;-79
2021/11/19 03:58:57;;;;;;;45.77;30.20;;;11.40;99.90;;;;;;4922692;28;20039;-79
2021/11/19 04:01:32;;;;;;;45.00;26.98;;;11.40;99.90;;;;;;4933882;28;20047;-77
2021/11/19 04:04:01;;;;;;;47.45;31.00;;;11.40;99.90;;;;;;4929772;28;20027;-77
2021/11/19 04:06:28;;;;;;;52.20;32.17;;;11.40;99.90;;;;;;4922199;28;20511;-76
2021/11/19 04:09:04;;;;;;;54.35;33.78;;;11.50;99.90;;;;;;4940531;28;20046;-78
2021/11/19 04:11:34;;;;;;;41.45;29.00;;;11.40;99.90;;;;;;5003323;28;20046;-77
2021/11/19 04:14:09;;;;;;;46.22;29.98;;;11.40;99.90;;;;;;4943930;28;20065;-76
2021/11/19 04:16:42;;;;;;;45.45;30.55;;;11.40;99.90;;;;;;5001513;28;20427;-77
2021/11/19 04:19:11;;;;;;;55.58;33.72;;;11.40;99.90;;;;;;5016962;28;20033;-77
2021/11/19 04:21:39;;;;;;;45.25;30.15;;;11.40;99.90;;;;;;5031537;28;20041;-77
2021/11/19 04:24:08;;;;;;;52.65;33.53;;;11.40;99.90;;;;;;5013805;28;20033;-76
2021/11/19 04:26:35;;;;;;;50.42;33.30;;;11.50;99.90;;;;;;5067113;28;20048;-76
2021/11/19 04:29:04;;;;;;;51.30;33.70;;;11.50;99.90;;;;;;5049032;28;20420;-78
2021/11/19 04:31:38;;;;;;;47.22;31.00;;;11.40;99.90;;;;;;5051601;28;20036;-78
2021/11/19 04:34:07;;;;;;;60.20;36.92;;;11.40;99.90;;;;;;5038673;28;20036;-78
2021/11/19 04:36:38;;;;;;;53.30;34.38;;;11.50;99.90;;;;;;5021937;28;20041;-78
2021/11/19 04:39:11;;;;;;;53.88;32.83;;;11.40;99.90;;;;;;5015890;28;20455;-78
2021/11/19 04:41:47;;;;;;;48.75;34.28;;;11.50;99.90;;;;;;5049707;28;20396;-78
2021/11/19 04:44:18;;;;;;;54.97;34.28;;;11.50;99.90;;;;;;5013404;28;20033;-77
2021/11/19 04:46:45;;;;;;;47.10;30.95;;;11.40;99.90;;;;;;5014415;28;20040;-78
2021/11/19 04:49:14;;;;;;;57.10;36.67;;;11.40;99.90;;;;;;5030902;28;20461;-77
2021/11/19 04:51:45;;;;;;;64.53;38.10;;;11.50;99.90;;;;;;5012247;28;20409;-77
2021/11/19 04:54:12;;;;;;;54.97;33.35;;;11.50;99.90;;;;;;5015669;28;20041;-77
2021/11/19 04:56:43;;;;;;;57.97;35.10;;;11.40;99.90;;;;;;4997993;28;20037;-77
2021/11/19 04:59:10;;;;;;;48.00;31.92;;;11.50;99.90;;;;;;5061332;28;20036;-77
2021/11/19 05:01:42;;;;;;;57.20;34.83;;;11.50;99.90;;;;;;5013960;28;20480;-77
2021/11/19 05:04:25;;;;;;;50.40;33.50;;;11.50;99.90;;;;;;5047109;28;20044;-77
2021/11/19 05:06:53;;;;;;;56.05;34.05;;;11.50;99.90;;;;;;5013513;28;20064;-77
2021/11/19 05:09:20;;;;;;;54.08;35.33;;;11.50;99.90;;;;;;5015182;28;20040;-77
2021/11/19 05:11:58;;;;;;;59.13;35.22;;;11.50;99.90;;;;;;5030876;28;20392;-77
2021/11/19 05:14:26;;;;;;;53.47;32.55;;;11.50;99.90;;;;;;5045204;28;20412;-77
2021/11/19 05:16:53;;;;;;;63.83;37.33;;;11.50;99.90;;;;;;5013885;28;20037;-77
2021/11/19 05:19:21;;;;;;;53.08;33.03;;;11.50;99.90;;;;;;5046534;28;20032;-77
2021/11/19 05:21:48;;;;;;;48.45;34.72;;;11.50;99.90;;;;;;5030478;28;20036;-77
2021/11/19 05:24:16;;;;;;;47.65;32.72;;;11.50;99.90;;;;;;5015298;28;21618;-77
2021/11/19 05:26:45;;;;;;;47.90;32.28;;;11.50;99.90;;;;;;5030538;28;20033;-77
2021/11/19 05:29:14;;;;;;;50.80;30.80;;;11.50;99.90;;;;;;5018487;28;20048;-77
2021/11/19 05:31:42;;;;;;;48.53;29.42;;;11.50;99.90;;;;;;5019958;28;20033;-79
2021/11/19 05:34:11;;;;;;;50.40;29.63;;;11.50;99.90;;;;;;5035257;28;20391;-77
2021/11/19 05:36:39;;;;;;;52.78;33.28;;;11.50;99.90;;;;;;5039055;28;20028;-77
2021/11/19 05:39:06;;;;;;;54.13;32.17;;;11.60;99.90;;;;;;5039287;28;20040;-77
2021/11/19 05:41:36;;;;;;;51.25;32.30;;;11.60;99.90;;;;;;5051570;28;20040;-77
2021/11/19 05:44:03;;;;;;;51.58;33.17;;;11.60;99.90;;;;;;5053552;28;20029;-77
2021/11/19 05:46:50;;;;;;;40.08;26.83;;;11.60;99.90;;;;;;5043408;28;21437;-77
2021/11/19 05:49:20;;;;;;;50.85;32.15;;;11.60;99.90;;;;;;5053241;28;20044;-77
2021/11/19 05:51:50;;;;;;;50.45;31.42;;;11.60;99.90;;;;;;5034618;28;20037;-77
2021/11/19 05:54:20;;;;;;;41.35;28.02;;;11.60;99.90;;;;;;5049404;28;20025;-80
2021/11/19 05:56:50;;;;;;;48.97;31.33;;;11.60;99.90;;;;;;5034777;28;20372;-80
2021/11/19 05:59:18;;;;;;;44.72;30.25;;;11.60;99.90;;;;;;5035410;28;20044;-80
2021/11/19 06:02:06;;;;;;;47.60;29.80;;;11.60;99.90;;;;;;5052541;28;20029;-80
2021/11/19 06:04:45;;;;;;;48.22;31.67;;;11.60;99.90;;;;;;5037721;28;20040;-80
2021/11/19 06:07:51;;;;;;;43.72;29.80;;;11.60;99.90;;;;;;5049358;28;20053;-80
2021/11/19 06:10:23;;;;;;;38.90;27.02;;;11.60;99.90;;;;;;5051037;28;20049;-77
2021/11/19 06:13:13;;;;;;;46.85;29.40;;;11.60;99.90;;;;;;5051934;28;20041;-77
2021/11/19 06:15:45;;;;;;;64.72;36.25;;;11.60;99.90;;;;;;5051744;28;20468;-77
2021/11/19 06:18:18;;;;;;;53.17;33.60;;;11.60;99.90;;;;;;5033635;28;20848;-77
2021/11/19 06:20:49;;;;;;;46.88;31.42;;;11.60;99.90;;;;;;5047197;28;20280;-77
2021/11/19 06:23:23;;;;;;;;;;;11.60;99.90;;;;;;5051827;28;20040;-76
2021/11/19 06:25:51;;;;;;;42.33;28.35;;;11.60;99.90;;;;;;5034200;28;19908;-77
2021/11/19 06:28:29;;;;;;;51.80;31.95;;;11.60;99.90;;;;;;5033282;28;20061;-77
2021/11/19 06:30:56;;;;;;;59.25;36.67;;;11.60;99.90;;;;;;5034348;28;20033;-80
2021/11/19 06:33:23;;;;;;;55.67;33.55;;;11.60;99.90;;;;;;5051767;28;20041;-80
2021/11/19 06:35:50;;;;;;;50.55;31.40;;;11.60;99.90;;;;;;5035235;28;20372;-80
2021/11/19 06:38:19;;;;;;;50.55;30.08;;;11.60;99.90;;;;;;5034444;28;20044;-81
2021/11/19 06:40:51;;;;;;;48.60;30.80;;;11.70;99.90;;;;;;5037775;28;20473;-81
2021/11/19 06:43:38;;;;;;;51.70;31.15;;;11.60;99.90;;;;;;5049792;28;20045;-80
2021/11/19 06:46:28;;;;;;;42.50;29.35;;;11.60;99.90;;;;;;5048705;28;20033;-80
2021/11/19 06:49:20;;;;;;;45.97;30.20;;;11.60;99.90;;;;;;5051084;28;20048;-80
2021/11/19 06:52:13;;;;;;;47.38;30.02;;;11.70;99.90;;;;;;5029646;28;20057;-77
2021/11/19 06:54:58;;;;;;;49.20;30.45;;;11.70;99.90;;;;;;5036071;28;20045;-77
2021/11/19 06:57:45;;;;;;;50.40;32.42;;;11.70;99.90;;;;;;5040821;28;20060;-79
2021/11/19 07:00:23;;;;;;;47.45;30.65;;;11.70;99.90;;;;;;5020507;28;20036;-80
2021/11/19 07:02:51;;;;;;;43.38;29.70;;;11.70;99.90;;;;;;5020960;28;20052;-80
2021/11/19 07:05:18;;;;;;;51.03;30.27;;;11.70;99.90;;;;;;5047105;28;20044;-80
2021/11/19 07:07:46;;;;;;;47.10;30.08;;;11.70;99.90;;;;;;5018564;28;20057;-80
2021/11/19 07:10:15;;;;;;;45.50;29.45;;;11.70;99.90;;;;;;5010962;28;20044;-80
2021/11/19 07:12:42;;;;;;;41.05;28.73;;;11.70;99.90;;;;;;5033608;28;20041;-80
2021/11/19 07:15:13;;;;;;;53.13;33.80;;;11.80;99.90;;;;;;5017253;28;20045;-80
2021/11/19 07:17:39;;;;;;;44.13;29.77;;;11.70;99.90;;;;;;5045932;28;20048;-80
2021/11/19 07:24:47;;;;;;;42.42;28.27;;;11.80;99.90;;;;;;5057764;28;20041;-80
2021/11/19 07:27:16;;;;;;;52.90;32.65;;;11.80;99.90;;;;;;5049104;28;20052;-81
2021/11/19 07:29:43;;;;;;;52.33;31.73;;;11.70;99.90;;;;;;4998586;28;20041;-81
2021/11/19 07:32:31;;;;;;;45.65;30.55;;;11.70;99.90;;;;;;5053378;28;20037;-82
2021/11/19 07:35:33;;;;;;;46.63;31.23;;;11.70;99.90;;;;;;5008718;28;20037;-78
2021/11/19 07:38:23;;;;;;;40.67;28.15;;;11.80;99.90;;;;;;5047264;28;20072;-78
2021/11/19 07:41:14;;;;;;;43.08;30.05;;;11.80;99.90;;;;;;5040828;28;20040;-78
2021/11/19 07:43:52;;;;;;;40.53;28.52;;;11.70;99.90;;;;;;5049704;28;20032;-77
2021/11/19 07:46:26;;;;;;;50.63;30.65;;;11.80;99.90;;;;;;5034107;28;20041;-77
2021/11/19 07:48:57;;;;;;;50.40;31.48;;;11.80;99.90;;;;;;5049047;28;20040;-78
2021/11/19 07:51:32;;;;;;;54.88;32.70;;;11.80;99.90;;;;;;5035149;28;20040;-78
2021/11/19 07:54:08;;;;;;;38.25;27.50;;;11.80;99.90;;;;;;5021759;28;20025;-78
2021/11/19 07:57:14;;;;;;;63.22;38.53;;;11.90;99.90;;;;;;4991967;28;20413;-79
2021/11/19 07:59:41;;;;;;;47.03;31.80;;;11.90;99.90;;;;;;5036423;28;20061;-78
2021/11/19 08:02:08;;;;;;;41.45;29.75;;;11.90;99.90;;;;;;5052386;28;20028;-78
2021/11/19 08:04:36;;;;;;;37.10;27.92;;;11.80;99.90;;;;;;5049999;28;20040;-78
2021/11/19 08:07:10;;;;;;;40.63;28.20;;;11.90;99.90;;;;;;5033581;28;20064;-78
2021/11/19 08:09:42;;;;;;;39.40;27.67;;;12.00;99.90;;;;;;5050106;28;20053;-78
2021/11/19 08:12:14;;;;;;;40.55;26.75;;;12.00;99.90;;;;;;5050437;28;20527;-78
2021/11/19 08:14:48;;;;;;;40.75;27.50;;;12.00;99.90;;;;;;5019044;28;20029;-78
2021/11/19 08:17:27;;;;;;;32.88;23.92;;;12.00;99.90;;;;;;5047947;28;20369;-78
2021/11/19 08:20:05;;;;;;;48.63;28.90;;;12.10;99.90;;;;;;5031538;28;20028;-78
2021/11/19 08:22:33;;;;;;;39.35;26.83;;;12.10;99.90;;;;;;5048057;28;20036;-78
2021/11/19 08:25:00;;;;;;;42.83;27.98;;;12.10;99.90;;;;;;5050571;28;20028;-78
2021/11/19 08:27:31;;;;;;;33.28;25.10;;;12.10;99.90;;;;;;5047103;28;20037;-78
2021/11/19 08:30:00;;;;;;;37.70;26.13;;;12.10;99.90;;;;;;5051015;28;20043;-78
2021/11/19 08:32:27;;;;;;;36.75;25.67;;;12.10;99.90;;;;;;5049929;28;20029;-78
2021/11/19 08:34:55;;;;;;;38.97;28.17;;;12.20;99.90;;;;;;5049591;28;20033;-78
2021/11/19 08:37:23;;;;;;;37.53;28.02;;;12.20;99.90;;;;;;5031896;28;20033;-78
2021/11/19 08:39:51;;;;;;;41.72;30.15;;;12.20;99.90;;;;;;5050872;28;20036;-78
2021/11/19 08:42:20;;;;;;;38.65;26.88;;;12.20;99.90;;;;;;5031657;28;20037;-78
2021/11/19 08:44:47;;;;;;;35.10;25.17;;;12.20;99.90;;;;;;5049072;28;20041;-78
2021/11/19 08:47:15;;;;;;;37.92;26.65;;;12.20;99.90;;;;;;5048225;28;20329;-78
2021/11/19 08:49:46;;;;;;;34.75;23.60;;;12.20;99.90;;;;;;5050555;28;20921;-78
2021/11/19 08:52:15;;;;;;;33.40;24.83;;;12.20;99.90;;;;;;5031829;28;20047;-78
2021/11/19 08:54:42;;;;;;;36.95;25.67;;;12.20;99.90;;;;;;5050222;28;20052;-78
2021/11/19 08:57:14;;;;;;;35.72;25.40;;;12.20;99.90;;;;;;5037969;28;20052;-78
2021/11/19 08:59:42;;;;;;;29.10;21.52;;;12.30;99.90;;;;;;5050097;28;20368;-78
2021/11/19 09:02:13;;;;;;;29.25;22.80;;;12.30;99.90;;;;;;5049192;28;20436;-78
2021/11/19 09:04:40;;;;;;;32.30;22.10;;;12.30;99.90;;;;;;5032212;28;20047;-79
2021/11/19 09:07:07;;;;;;;32.42;23.30;;;12.40;99.90;;;;;;5047756;28;20555;-78
2021/11/19 09:09:34;;;;;;;32.03;23.50;;;12.40;99.90;;;;;;5048335;28;20044;-78
2021/11/19 09:12:01;;;;;;;28.15;22.40;;;12.40;99.90;;;;;;5014932;28;20373;-78
2021/11/19 09:14:27;;;;;;;32.53;23.17;;;12.50;99.90;;;;;;5050054;28;20052;-78
2021/11/19 09:17:22;;;;;;;26.33;21.20;;;12.50;99.90;;;;;;5047914;28;20112;-78
2021/11/19 09:19:51;;;;;;;34.47;24.00;;;12.50;99.90;;;;;;5047786;28;20064;-78
2021/11/19 09:22:35;;;;;;;29.58;21.70;;;12.50;99.90;;;;;;5048135;28;20048;-78
2021/11/19 09:25:05;;;;;;;35.08;25.08;;;12.50;99.90;;;;;;5048399;28;20041;-78
2021/11/19 09:27:34;;;;;;;28.17;20.98;;;12.60;99.90;;;;;;5047513;28;20029;-78
2021/11/19 09:30:14;;;;;;;34.75;23.77;;;12.60;99.90;;;;;;5048721;28;20041;-78
2021/11/19 09:32:46;;;;;;;33.47;24.15;;;12.60;99.90;;;;;;5032125;28;20056;-78
2021/11/19 09:35:13;;;;;;;33.55;22.25;;;12.60;99.90;;;;;;5029918;28;20037;-78
2021/11/19 09:37:41;;;;;;;28.17;21.00;;;12.70;99.90;;;;;;5030690;28;20492;-78
2021/11/19 09:40:09;;;;;;;29.67;21.13;;;12.70;99.90;;;;;;5031411;28;20408;-78
2021/11/19 09:42:55;;;;;;;30.23;21.70;;;12.80;99.90;;;;;;5031565;28;20033;-78
2021/11/19 09:45:48;;;;;;;32.45;23.40;;;12.80;99.90;;;;;;5031683;28;20472;-78
2021/11/19 09:49:00;;;;;;;30.00;20.75;;;12.90;99.90;;;;;;5031257;28;20040;-78
2021/11/19 09:52:09;;;;;;;25.77;20.10;;;12.90;99.90;;;;;;5021128;28;20060;-78
2021/11/19 09:55:12;;;;;;;26.23;18.80;;;13.00;99.90;;;;;;5016628;28;20056;-79
2021/11/19 09:58:03;;;;;;;29.25;20.83;;;13.10;99.90;;;;;;5045928;28;20052;-79
2021/11/19 10:00:56;;;;;;;26.13;19.08;;;13.10;99.90;;;;;;5013148;28;20053;-80
2021/11/19 10:03:36;;;;;;;25.63;19.67;;;13.20;99.90;;;;;;5046572;28;20507;-78
2021/11/19 10:06:57;;;;;;;;;;;;;;;;;;;;;
2021/11/19 10:10:07;;;;;;;22.52;17.70;;;13.20;99.90;;;;;;5045719;28;20044;-80
2021/11/19 10:13:16;;;;;;;23.33;17.08;;;13.30;99.90;;;;;;5036418;28;20028;-79
2021/11/19 10:16:04;;;;;;;23.48;17.33;;;13.40;99.90;;;;;;5053573;28;20032;-79
2021/11/19 10:26:23;;;;;;;23.45;17.13;;;13.70;99.90;;;;;;4970827;28;20046;-79
2021/11/19 10:29:16;;;;;;;18.20;14.10;;;13.70;99.90;;;;;;5004636;28;20041;-79
2021/11/19 10:31:50;;;;;;;20.50;14.55;;;13.80;99.90;;;;;;4990869;28;20030;-80
2021/11/19 10:34:41;;;;;;;17.65;12.50;;;13.80;99.90;;;;;;4974957;28;20061;-79
2021/11/19 10:37:17;;;;;;;19.27;14.18;;;13.90;99.90;;;;;;4990283;28;20057;-80
2021/11/19 10:40:13;;;;;;;22.65;15.32;;;14.00;99.90;;;;;;4991737;28;20053;-80
2021/11/19 10:42:43;;;;;;;17.33;12.98;;;14.00;99.90;;;;;;4989238;28;20045;-80
2021/11/19 10:45:34;;;;;;;17.60;12.63;;;14.10;99.90;;;;;;4975498;28;20060;-81
2021/11/19 10:48:22;;;;;;;17.38;11.48;;;14.10;99.90;;;;;;5030888;28;20090;-80
2021/11/19 10:51:53;;;;;;;15.77;10.85;;;14.20;99.90;;;;;;5034346;28;20032;-80
2021/11/19 10:55:18;;;;;;;15.15;9.80;;;14.30;99.90;;;;;;5005950;28;20213;-79
2021/11/19 10:58:30;;;;;;;20.70;8.80;;;14.40;99.90;;;;;;4992586;28;20042;-77
2021/11/19 11:03:10;;;;;;;18.77;10.10;;;14.50;99.90;;;;;;4915057;28;20040;-79
2021/11/19 11:10:43;;;;;;;13.80;8.27;;;14.60;99.90;;;;;;4958276;28;20054;-78
2021/11/19 11:14:10;;;;;;;11.88;8.15;;;14.60;99.90;;;;;;4911834;29;20503;-79
2021/11/19 11:16:47;;;;;;;13.73;8.57;;;14.70;99.90;;;;;;4924033;28;21580;-78
2021/11/19 11:19:47;;;;;;;12.30;8.45;;;14.70;99.90;;;;;;4978596;28;20046;-78
2021/11/19 11:22:25;;;;;;;13.88;8.10;;;14.70;99.90;;;;;;4957581;28;20050;-79
2021/11/19 11:25:42;;;;;;;10.98;6.75;;;14.60;99.90;;;;;;4975370;28;20038;-79
2021/11/19 11:28:44;;;;;;;11.45;7.07;;;14.60;99.90;;;;;;4990315;28;20026;-78
2021/11/19 11:32:07;;;;;;;9.57;6.05;;;14.50;99.90;;;;;;4946750;28;20057;-78
2021/11/19 11:35:05;;;;;;;12.52;5.93;;;14.40;99.90;;;;;;5043441;28;20450;-78
2021/11/19 11:38:13;;;;;;;11.10;6.30;;;14.30;99.90;;;;;;5042343;28;20057;-78
2021/11/19 11:41:21;;;;;;;9.57;6.78;;;14.20;99.90;;;;;;5008543;28;20037;-78
2021/11/19 11:44:42;;;;;;;8.55;5.38;;;14.20;99.90;;;;;;4993527;28;20409;-78
2021/11/19 11:47:30;;;;;;;12.85;7.50;;;14.10;99.90;;;;;;5019209;28;20052;-78
2021/11/19 11:50:53;;;;;;;12.65;6.35;;;14.00;99.90;;;;;;5012107;28;20120;-79
2021/11/19 11:53:28;;;;;;;13.68;8.32;;;14.10;99.90;;;;;;4987718;28;20048;-79
2021/11/19 11:56:18;;;;;;;12.82;9.35;;;14.20;99.90;;;;;;5027548;28;20049;-79
2021/11/19 11:59:29;;;;;;;14.35;8.80;;;14.30;99.90;;;;;;5009698;28;20052;-78
2021/11/19 12:02:05;;;;;;;13.57;8.65;;;14.40;99.90;;;;;;5035784;28;20777;-78
2021/11/19 12:04:54;;;;;;;16.60;11.35;;;14.50;99.90;;;;;;5042246;28;20140;-78
2021/11/19 12:07:56;;;;;;;12.68;8.35;;;14.50;99.90;;;;;;5024565;28;20041;-79
2021/11/19 12:10:40;;;;;;;13.90;8.32;;;14.50;99.90;;;;;;5025477;28;20493;-79
2021/11/19 12:13:24;;;;;;;12.45;8.77;;;14.50;99.90;;;;;;5009233;28;20068;-79
2021/11/19 12:16:36;;;;;;;11.73;7.40;;;14.40;99.90;;;;;;5010656;28;20049;-79
2021/11/19 12:19:09;;;;;;;11.70;8.25;;;14.40;99.90;;;;;;4998023;28;20409;-79
2021/11/19 12:21:39;;;;;;;;;;;14.30;99.90;;;;;;5007831;28;20044;-79
2021/11/19 12:24:24;;;;;;;13.20;7.47;;;14.20;99.90;;;;;;5007483;28;19920;-79
2021/11/19 12:27:04;;;;;;;10.93;7.22;;;14.20;99.90;;;;;;4991697;28;20046;-79
2021/11/19 12:29:46;;;;;;;8.10;5.90;;;14.10;99.90;;;;;;4994438;28;20048;-79
2021/11/19 12:32:32;;;;;;;5.97;5.07;;;14.10;99.90;;;;;;5013203;28;20045;-79
2021/11/19 12:35:23;;;;;;;10.35;6.28;;;14.10;99.90;;;;;;4994792;28;20056;-79
2021/11/19 12:38:09;;;;;;;11.05;5.90;;;14.10;99.90;;;;;;5009058;28;20041;-79
2021/11/19 12:40:39;;;;;;;7.95;6.03;;;14.10;99.90;;;;;;5009609;28;20049;-79
2021/11/19 12:43:34;;;;;;;8.15;5.80;;;14.10;99.90;;;;;;5010896;28;20033;-79
2021/11/19 12:46:04;;;;;;;9.48;5.93;;;14.10;99.90;;;;;;4993574;28;20038;-79
2021/11/19 12:48:50;;;;;;;9.10;5.78;;;14.10;99.90;;;;;;4994716;28;20041;-79
2021/11/19 12:51:28;;;;;;;9.77;5.80;;;14.10;99.90;;;;;;4999249;28;20029;-79
2021/11/19 12:54:18;;;;;;;10.93;4.72;;;14.00;99.90;;;;;;4994116;28;20038;-79
2021/11/19 12:57:12;;;;;;;8.40;5.22;;;14.00;99.90;;;;;;4995572;28;20052;-79
2021/11/19 13:00:06;;;;;;;6.75;4.57;;;13.90;99.90;;;;;;5027273;28;20041;-79
2021/11/19 13:02:38;;;;;;;10.18;5.45;;;13.90;99.90;;;;;;5010054;28;20029;-79
2021/11/19 13:05:20;;;;;;;9.40;5.78;;;13.90;99.90;;;;;;4994173;28;20037;-79
2021/11/19 13:08:40;;;;;;;8.77;5.00;;;13.90;99.90;;;;;;5000502;28;20037;-79
2021/11/19 13:11:50;;;;;;;10.23;5.47;;;13.90;99.90;;;;;;5018113;28;20045;-79
2021/11/19 13:14:30;;;;;;;7.32;5.03;;;13.80;99.90;;;;;;5015223;28;20071;-79
2021/11/19 13:17:51;;;;;;;8.15;5.18;;;13.90;99.90;;;;;;5019913;28;20399;-79
2021/11/19 13:20:49;;;;;;;8.30;4.75;;;13.90;99.90;;;;;;5033118;28;20049;-79
2021/11/19 13:23:55;;;;;;;9.45;4.60;;;13.90;99.90;;;;;;5034490;28;20359;-79
2021/11/19 13:27:08;;;;;;;7.05;4.15;;;13.90;99.90;;;;;;5051928;28;20372;-79
2021/11/19 13:29:48;;;;;;;7.85;4.15;;;13.90;99.90;;;;;;5032949;28;20428;-79
2021/11/19 13:33:29;;;;;;;6.20;3.92;;;13.90;99.90;;;;;;5028701;28;20044;-79
2021/11/19 13:37:02;;;;;;;;;;;;;;;;;;;;;
2021/11/19 13:40:46;;;;;;;;;;;;;;;;;;;;;
2021/11/19 13:43:50;;;;;;;7.32;2.97;;;14.00;99.90;;;;;;5052304;28;20479;-79
2021/11/19 13:50:00;;;;;;;6.18;2.67;;;14.00;99.90;;;;;;5028019;28;20047;-79
2021/11/19 13:56:31;;;;;;;5.82;2.67;;;14.00;99.90;;;;;;5053845;28;20040;-79
2021/11/19 14:00:22;;;;;;;5.53;2.03;;;14.00;99.90;;;;;;5025099;28;20045;-79
2021/11/19 14:04:42;;;;;;;5.28;3.13;;;13.90;99.90;;;;;;4997551;28;20045;-79
2021/11/19 14:08:21;;;;;;;6.70;2.40;;;13.90;99.90;;;;;;4985351;28;20050;-79
2021/11/19 14:11:30;;;;;;;5.25;2.13;;;13.80;99.90;;;;;;4969498;28;20158;-82
2021/11/19 14:13:57;;;;;;;7.53;1.70;;;13.80;99.90;;;;;;4971900;28;20345;-79
2021/11/19 14:16:32;;;;;;;5.72;2.38;;;13.80;99.90;;;;;;4955226;28;20047;-79
2021/11/19 14:19:17;;;;;;;7.05;2.78;;;13.80;99.90;;;;;;4969648;28;20051;-80
2021/11/19 14:22:03;;;;;;;5.13;1.73;;;13.80;99.90;;;;;;4951005;28;20541;-80